Time;durP1;ratioP1;P1;durP2;ratioP2;P2;SDS_P1;SDS_P2;PMS_P1;PMS_P2;Temp;Humidity;BMP_temperature;BMP_pressure;BME280_temperature;BME280_humidity;BME280_pressure;Samples;Min_cycle;Max_cycle;Signal;HPM_P1;HPM_P2
2023/02/08 00:01:13;;;;;;;25.05;13.60;;;;;;;1.66;57.68;98228.38;5098396;27;20075;-57
2023/02/08 00:03:42;;;;;;;21.73;13.00;;;;;;;1.93;55.95;98230.16;5099999;27;20082;-59
2023/02/08 00:06:10;;;;;;;25.13;12.98;;;;;;;1.61;56.69;98227.63;5099184;27;20086;-59
2023/02/08 00:08:39;;;;;;;22.95;12.88;;;;;;;1.71;56.55;98224.75;5104893;27;20093;-59
2023/02/08 00:11:09;;;;;;;21.92;12.50;;;;;;;1.83;55.83;98214.84;5101414;27;20503;-58
2023/02/08 00:13:40;;;;;;;21.63;13.02;;;;;;;1.66;56.36;98219.72;5103223;27;20087;-59
2023/02/08 00:16:11;;;;;;;24.55;13.70;;;;;;;1.58;56.98;98222.56;5108941;27;20460;-56
2023/02/08 00:18:39;;;;;;;22.50;12.70;;;;;;;1.79;57.29;98217.56;5091830;27;20102;-59
2023/02/08 00:21:09;;;;;;;24.77;12.80;;;;;;;1.69;56.81;98213.53;5098378;27;20087;-58
2023/02/08 00:23:38;;;;;;;26.42;12.80;;;;;;;1.71;56.98;98207.41;5098371;27;20082;-60
2023/02/08 00:26:07;;;;;;;22.88;13.23;;;;;;;1.68;57.47;98202.28;5101905;28;20079;-59
2023/02/08 00:28:35;;;;;;;24.30;12.70;;;;;;;1.58;56.32;98206.94;5102379;28;20079;-58
2023/02/08 00:31:05;;;;;;;26.63;12.50;;;;;;;1.36;57.64;98205.88;5092820;28;20080;-58
2023/02/08 00:33:34;;;;;;;22.08;12.93;;;;;;;1.40;61.27;98199.69;5105019;27;20549;-60
2023/02/08 00:36:04;;;;;;;26.15;13.15;;;;;;;1.49;59.49;98203.78;5095655;27;20083;-58
2023/02/08 00:38:32;;;;;;;27.60;15.35;;;;;;;1.05;60.34;98213.69;5096914;27;20084;-58
2023/02/08 00:41:00;;;;;;;24.45;13.63;;;;;;;1.20;61.21;98197.66;5102208;27;20619;-59
2023/02/08 00:43:29;;;;;;;26.40;13.80;;;;;;;1.11;61.01;98206.56;5095356;27;20079;-58
2023/02/08 00:45:58;;;;;;;25.95;13.55;;;;;;;1.35;60.62;98197.22;5094956;27;20083;-60
2023/02/08 00:48:28;;;;;;;24.35;13.48;;;;;;;1.29;60.35;98210.38;5106950;27;20101;-59
2023/02/08 00:51:01;;;;;;;24.85;13.38;;;;;;;1.24;60.27;98216.59;5101851;27;20098;-61
2023/02/08 00:53:29;;;;;;;28.73;14.50;;;;;;;1.25;59.32;98216.56;5104262;27;20079;-59
2023/02/08 00:55:57;;;;;;;26.25;14.82;;;;;;;1.27;59.38;98208.72;5100831;27;20088;-60
2023/02/08 00:58:26;;;;;;;21.95;12.45;;;;;;;1.09;59.72;98205.75;5099092;28;20078;-59
2023/02/08 01:00:54;;;;;;;27.13;15.43;;;;;;;0.55;61.82;98218.47;5103140;27;20087;-60
2023/02/08 01:03:23;;;;;;;27.58;13.43;;;;;;;0.82;63.07;98217.75;5101743;27;20106;-57
2023/02/08 01:05:53;;;;;;;26.55;11.65;;;;;;;0.84;63.72;98220.31;5106816;27;20086;-58
2023/02/08 01:08:21;;;;;;;22.55;11.45;;;;;;;1.11;61.90;98208.31;5092284;28;20083;-60
2023/02/08 01:10:49;;;;;;;27.02;11.38;;;;;;;0.60;64.08;98216.63;5103439;27;20082;-58
2023/02/08 01:13:18;;;;;;;28.05;12.63;;;;;;;0.54;64.13;98216.78;5096457;27;20090;-59
2023/02/08 01:15:46;;;;;;;27.23;13.05;;;;;;;0.40;66.06;98211.94;5101778;27;20582;-56
2023/02/08 01:18:14;;;;;;;27.23;13.20;;;;;;;0.38;68.47;98213.72;5094913;27;20079;-58
2023/02/08 01:20:43;;;;;;;27.67;12.85;;;;;;;0.59;66.27;98214.94;5098173;28;20098;-59
2023/02/08 01:23:12;;;;;;;29.10;12.98;;;;;;;0.96;65.01;98212.19;5106439;27;20071;-58
2023/02/08 01:25:41;;;;;;;29.23;12.90;;;;;;;0.87;65.01;98221.09;5096622;27;20562;-60
2023/02/08 01:28:09;;;;;;;26.63;12.63;;;;;;;0.74;65.32;98216.28;5102506;27;20075;-61
2023/02/08 01:30:38;;;;;;;26.17;11.43;;;;;;;0.66;65.68;98214.72;5096160;28;20087;-60
2023/02/08 01:33:06;;;;;;;27.35;13.40;;;;;;;0.66;65.92;98213.88;5103189;27;20474;-60
2023/02/08 01:35:35;;;;;;;33.13;15.07;;;;;;;0.39;68.35;98212.84;5096190;27;20098;-59
2023/02/08 01:38:03;;;;;;;29.15;15.20;;;;;;;0.43;69.33;98214.47;5096393;28;20459;-59
2023/02/08 01:40:33;;;;;;;29.67;13.38;;;;;;;0.39;69.55;98213.69;5096746;27;20556;-57
2023/02/08 01:43:01;;;;;;;30.25;12.52;;;;;;;0.15;72.92;98214.31;5094422;28;20524;-58
2023/02/08 01:45:32;;;;;;;26.45;12.50;;;;;;;0.31;71.22;98210.44;5099120;28;20110;-58
2023/02/08 01:48:05;;;;;;;26.80;13.20;;;;;;;0.63;70.13;98209.63;5096333;27;20064;-59
2023/02/08 01:50:39;;;;;;;24.95;11.55;;;;;;;0.53;70.51;98208.16;5099096;28;20079;-60
2023/02/08 01:53:08;;;;;;;26.33;12.35;;;;;;;0.87;68.23;98207.25;5099786;28;20079;-58
2023/02/08 01:55:40;;;;;;;29.35;12.95;;;;;;;0.93;65.99;98207.09;5104697;27;20175;-59
2023/02/08 01:58:10;;;;;;;28.75;11.30;;;;;;;0.80;65.71;98201.38;5094911;28;20075;-60
2023/02/08 02:00:38;;;;;;;24.85;10.77;;;;;;;1.17;63.25;98200.34;5093338;28;20095;-60
2023/02/08 02:03:07;;;;;;;25.90;11.25;;;;;;;0.92;64.16;98200.19;5097662;28;20079;-60
2023/02/08 02:05:40;;;;;;;23.83;9.90;;;;;;;1.07;63.87;98197.16;5096813;28;20079;-60
2023/02/08 02:08:08;;;;;;;25.83;11.85;;;;;;;1.12;62.85;98192.69;5092328;27;20080;-60
2023/02/08 02:10:39;;;;;;;24.90;10.30;;;;;;;1.17;62.40;98193.41;5093637;28;20086;-59
2023/02/08 02:13:10;;;;;;;22.95;10.88;;;;;;;1.09;62.55;98186.72;5091300;28;20079;-60
2023/02/08 02:15:38;;;;;;;25.40;10.98;;;;;;;0.75;64.36;98200.63;5097149;28;20083;-59
2023/02/08 02:18:08;;;;;;;25.73;11.32;;;;;;;0.70;64.17;98199.91;5093397;27;20091;-59
2023/02/08 02:20:47;;;;;;;28.98;12.25;;;;;;;0.75;64.36;98205.81;5097881;28;20083;-59
2023/02/08 02:23:36;;;;;;;17.02;7.40;;;;;;;0.86;63.67;98193.44;5100383;28;20075;-57
2023/02/08 02:26:28;;;;;;;31.35;14.07;;;;;;;1.03;63.71;98189.47;5091486;28;20087;-57
2023/02/08 02:29:23;;;;;;;29.20;13.82;;;;;;;1.08;64.26;98188.47;5098578;28;20079;-57
2023/02/08 02:32:02;;;;;;;29.83;13.23;;;;;;;0.88;64.88;98190.78;5049043;28;20080;-60
2023/02/08 02:34:37;;;;;;;32.13;14.70;;;;;;;0.49;67.00;98197.91;5097773;28;20079;-59
2023/02/08 02:37:12;;;;;;;32.58;15.02;;;;;;;0.44;68.02;98185.88;5091473;28;20070;-60
2023/02/08 02:39:44;;;;;;;29.70;13.77;;;;;;;0.28;70.07;98191.50;5103702;28;20105;-60
2023/02/08 02:45:07;;;;;;;30.20;13.80;;;;;;;0.59;68.95;98181.19;5093466;28;20063;-60
2023/02/08 02:47:43;;;;;;;28.30;13.70;;;;;;;0.50;68.84;98187.47;5096992;28;20102;-60
2023/02/08 02:50:18;;;;;;;30.52;13.95;;;;;;;0.01;72.15;98186.09;5098159;27;20087;-60
2023/02/08 02:52:48;;;;;;;27.73;13.32;;;;;;;0.35;72.73;98186.13;5098367;27;20066;-58
2023/02/08 02:55:20;;;;;;;30.70;15.75;;;;;;;0.05;75.11;98185.16;5101179;27;20094;-59
2023/02/08 02:57:50;;;;;;;29.83;15.20;;;;;;;0.42;73.14;98184.22;5095705;27;20028;-60
2023/02/08 03:00:22;;;;;;;30.63;16.15;;;;;;;0.17;72.47;98190.03;5098816;27;20078;-61
2023/02/08 03:02:54;;;;;;;29.73;15.25;;;;;;;0.30;71.11;98190.56;5096166;27;20550;-60
2023/02/08 03:05:22;;;;;;;34.13;14.60;;;;;;;0.54;72.03;98189.09;5099614;27;20079;-60
2023/02/08 03:08:00;;;;;;;34.72;16.45;;;;;;;-0.08;75.10;98196.69;5099485;27;20074;-57
2023/02/08 03:10:53;;;;;;;30.95;15.50;;;;;;;-0.04;77.30;98191.38;5096252;27;20735;-60
2023/02/08 03:13:28;;;;;;;32.53;16.83;;;;;;;-0.07;78.33;98185.44;5095435;27;20078;-61
2023/02/08 03:16:02;;;;;;;32.78;14.82;;;;;;;0.03;78.17;98186.06;5106967;27;20082;-60
2023/02/08 03:18:36;;;;;;;30.20;14.13;;;;;;;-0.16;78.24;98193.44;5092645;27;20068;-60
2023/02/08 03:21:10;;;;;;;33.03;15.85;;;;;;;0.32;76.96;98187.94;5103311;27;20542;-60
2023/02/08 03:23:41;;;;;;;31.77;14.43;;;;;;;-0.11;78.16;98188.97;5089613;27;20433;-60
2023/02/08 03:26:16;;;;;;;34.33;15.45;;;;;;;0.23;77.60;98186.41;5096906;27;20772;-58
2023/02/08 03:28:50;;;;;;;31.38;14.13;;;;;;;0.60;72.42;98181.13;5098517;27;20071;-60
2023/02/08 03:31:21;;;;;;;35.03;16.42;;;;;;;0.38;71.87;98188.66;5092767;27;20197;-61
2023/02/08 03:33:53;;;;;;;31.92;15.38;;;;;;;0.20;76.72;98189.09;5100266;27;20175;-57
2023/02/08 03:36:24;;;;;;;33.10;16.45;;;;;;;0.03;79.10;98188.66;5095528;27;20091;-60
2023/02/08 03:38:53;;;;;;;36.45;16.35;;;;;;;-0.37;83.47;98190.47;5110605;27;20082;-61
2023/02/08 03:41:26;;;;;;;32.38;16.08;;;;;;;-0.33;84.63;98192.09;5095821;27;20068;-60
2023/02/08 03:43:58;;;;;;;37.33;17.02;;;;;;;-0.49;85.06;98198.50;5091699;28;20068;-60
2023/02/08 03:46:29;;;;;;;33.28;14.55;;;;;;;-0.27;86.27;98194.53;5098314;27;20140;-58
2023/02/08 03:49:04;;;;;;;34.65;16.90;;;;;;;-0.76;92.57;98194.75;5099714;28;20280;-60
2023/02/08 03:51:34;;;;;;;31.52;15.27;;;;;;;-0.42;89.32;98197.47;5099403;27;20067;-59
2023/02/08 03:54:05;;;;;;;29.50;14.88;;;;;;;0.14;80.85;98195.31;5103251;27;20070;-59
2023/02/08 03:56:36;;;;;;;33.70;15.82;;;;;;;0.23;77.12;98196.81;5095123;28;20700;-56
2023/02/08 03:59:07;;;;;;;29.70;14.10;;;;;;;-0.07;79.67;98195.81;5097807;27;20077;-59
2023/02/08 04:01:38;;;;;;;37.33;15.73;;;;;;;0.00;81.71;98184.41;5093295;27;20059;-60
2023/02/08 04:04:08;;;;;;;34.72;16.60;;;;;;;-0.22;83.31;98184.06;5092471;27;20453;-59
2023/02/08 04:06:37;;;;;;;46.55;19.15;;;;;;;-0.32;87.42;98177.38;5092467;28;20586;-60
2023/02/08 04:09:05;;;;;;;37.53;16.48;;;;;;;-0.69;92.84;98175.59;5097240;27;20542;-60
2023/02/08 04:11:33;;;;;;;37.70;17.15;;;;;;;-0.45;93.54;98176.78;5101637;27;20059;-59
2023/02/08 04:14:02;;;;;;;41.22;16.88;;;;;;;-0.50;95.56;98174.31;5092425;27;20078;-57
2023/02/08 04:16:30;;;;;;;29.20;14.32;;;;;;;-0.38;93.89;98172.31;5091190;27;20161;-60
2023/02/08 04:18:59;;;;;;;37.45;18.05;;;;;;;-0.51;94.36;98170.03;5103039;27;20075;-61
2023/02/08 04:21:28;;;;;;;35.08;15.85;;;;;;;-0.05;91.01;98163.75;5093534;27;20067;-61
2023/02/08 04:23:57;;;;;;;36.55;16.23;;;;;;;0.04;85.58;98159.25;5102032;27;20110;-59
2023/02/08 04:26:25;;;;;;;35.30;17.30;;;;;;;-0.15;85.21;98161.44;5098268;27;20090;-59
2023/02/08 04:28:53;;;;;;;31.10;15.13;;;;;;;0.09;83.68;98155.63;5097108;27;20062;-60
2023/02/08 04:31:22;;;;;;;35.67;16.15;;;;;;;-0.47;87.87;98164.78;5096629;28;20084;-60
2023/02/08 04:33:50;;;;;;;30.00;14.25;;;;;;;0.06;86.49;98152.28;5096273;27;20184;-60
2023/02/08 04:36:19;;;;;;;34.08;17.02;;;;;;;-0.12;84.91;98157.03;5099115;27;20706;-58
2023/02/08 04:38:48;;;;;;;37.13;18.10;;;;;;;-0.21;84.44;98161.56;5093059;27;20086;-60
2023/02/08 04:41:17;;;;;;;36.50;17.95;;;;;;;-0.49;91.10;98168.25;5094392;27;20078;-60
2023/02/08 04:43:45;;;;;;;34.38;16.13;;;;;;;-0.28;88.55;98164.31;5091710;27;20330;-60
2023/02/08 04:46:13;;;;;;;35.92;15.70;;;;;;;-0.48;88.38;98163.94;5089045;28;20543;-60
2023/02/08 04:48:42;;;;;;;36.42;15.02;;;;;;;0.10;84.29;98156.50;5098634;28;20075;-60
2023/02/08 04:51:10;;;;;;;35.72;16.35;;;;;;;-0.02;81.60;98155.06;5089725;27;20087;-62
2023/02/08 04:53:38;;;;;;;37.17;15.23;;;;;;;0.35;79.35;98154.13;5102820;27;20515;-60
2023/02/08 04:56:08;;;;;;;38.08;16.02;;;;;;;0.21;78.81;98160.53;5093479;27;20060;-60
2023/02/08 04:58:36;;;;;;;32.42;15.45;;;;;;;0.03;80.53;98160.97;5095026;27;20524;-60
2023/02/08 05:01:06;;;;;;;37.88;15.25;;;;;;;0.20;78.25;98155.38;5100672;27;20070;-59
2023/02/08 05:03:34;;;;;;;33.47;15.00;;;;;;;0.44;76.57;98152.13;5094453;27;20059;-60
2023/02/08 05:06:03;;;;;;;32.63;14.98;;;;;;;0.82;69.57;98146.78;5095740;27;20067;-59
2023/02/08 05:08:31;;;;;;;34.25;15.35;;;;;;;0.57;68.12;98141.44;5098435;27;20055;-61
2023/02/08 05:11:00;;;;;;;33.80;14.60;;;;;;;0.78;65.75;98138.25;5097121;28;20071;-59
2023/02/08 05:13:29;;;;;;;33.63;14.18;;;;;;;0.38;65.69;98143.66;5103861;27;20131;-60
2023/02/08 05:15:58;;;;;;;36.95;14.95;;;;;;;0.74;66.45;98136.63;5096801;28;20075;-58
2023/02/08 05:18:26;;;;;;;34.40;15.48;;;;;;;0.73;65.08;98139.28;5098084;27;20094;-60
2023/02/08 05:20:56;;;;;;;31.20;14.45;;;;;;;0.79;64.91;98137.38;5104278;27;20133;-59
2023/02/08 05:23:24;;;;;;;34.83;15.18;;;;;;;0.75;65.19;98140.06;5097037;27;20086;-59
2023/02/08 05:25:53;;;;;;;33.67;14.02;;;;;;;0.68;65.30;98135.03;5094597;28;20568;-60
2023/02/08 05:28:22;;;;;;;35.83;15.27;;;;;;;0.58;66.75;98136.19;5096311;27;20079;-61
2023/02/08 05:30:52;;;;;;;34.60;16.25;;;;;;;0.39;68.50;98135.00;5096404;27;21421;-60
2023/02/08 05:33:20;;;;;;;31.60;15.05;;;;;;;0.13;72.74;98144.28;5093166;28;20087;-58
2023/02/08 05:35:49;;;;;;;31.17;14.70;;;;;;;-0.16;76.74;98144.19;5101748;27;20358;-61
2023/02/08 05:38:17;;;;;;;38.72;16.67;;;;;;;-0.51;81.50;98143.28;5089263;28;20173;-61
2023/02/08 05:40:45;;;;;;;46.65;21.63;;;;;;;-0.69;84.47;98141.91;5101632;27;20079;-60
2023/02/08 05:43:14;;;;;;;39.00;17.55;;;;;;;-0.79;90.54;98138.72;5088907;28;20075;-61
2023/02/08 05:45:42;;;;;;;37.75;16.92;;;;;;;-0.60;89.33;98140.88;5096616;28;20586;-62
2023/02/08 05:48:12;;;;;;;35.35;16.35;;;;;;;-0.68;86.55;98145.41;5094941;27;20082;-61
2023/02/08 05:50:40;;;;;;;42.05;16.58;;;;;;;-0.53;88.56;98150.22;5099723;28;20038;-61
2023/02/08 05:53:09;;;;;;;33.60;15.02;;;;;;;-0.41;85.78;98144.78;5094713;28;20060;-59
2023/02/08 05:55:38;;;;;;;35.60;15.23;;;;;;;-0.95;91.86;98142.50;5096607;28;20096;-59
2023/02/08 05:58:06;;;;;;;35.28;15.20;;;;;;;-0.65;88.33;98143.59;5094285;28;20083;-62
2023/02/08 06:00:34;;;;;;;35.33;16.88;;;;;;;-0.66;91.37;98141.84;5100348;28;20075;-59
2023/02/08 06:03:03;;;;;;;37.13;16.20;;;;;;;-0.34;86.59;98146.31;5103533;28;20078;-62
2023/02/08 06:05:33;;;;;;;35.85;16.90;;;;;;;-0.60;91.50;98144.31;5092954;28;20072;-58
2023/02/08 06:08:01;;;;;;;37.90;19.45;;;;;;;-0.32;86.08;98151.47;5092510;28;20545;-60
2023/02/08 06:10:29;;;;;;;32.63;17.00;;;;;;;-0.86;92.86;98149.22;5087726;28;20082;-59
2023/02/08 06:12:58;;;;;;;33.10;15.40;;;;;;;-0.90;93.85;98151.00;5095858;28;20086;-61
2023/02/08 06:15:27;;;;;;;28.48;14.50;;;;;;;-0.31;92.96;98156.63;5096427;28;20091;-60
2023/02/08 06:17:56;;;;;;;34.25;16.33;;;;;;;-0.55;94.45;98152.84;5098320;28;20068;-61
2023/02/08 06:20:24;;;;;;;32.20;13.68;;;;;;;-0.77;94.01;98154.19;5096274;28;20072;-59
2023/02/08 06:22:55;;;;;;;33.83;14.07;;;;;;;-0.31;90.35;98147.97;5094387;27;20447;-59
2023/02/08 06:25:23;;;;;;;33.75;16.60;;;;;;;-0.34;90.80;98153.25;5103911;27;20088;-58
2023/02/08 06:27:51;;;;;;;35.67;16.02;;;;;;;-0.24;87.39;98152.16;5099856;27;20082;-59
2023/02/08 06:30:20;;;;;;;36.58;15.95;;;;;;;-0.05;86.69;98152.53;5100052;27;20295;-58
2023/02/08 06:32:48;;;;;;;28.90;14.10;;;;;;;-0.29;88.14;98162.59;5105393;27;20075;-60
2023/02/08 06:35:17;;;;;;;28.67;13.60;;;;;;;0.02;85.54;98159.28;5099799;28;20082;-62
2023/02/08 06:37:45;;;;;;;34.80;16.42;;;;;;;0.02;86.96;98164.47;5097000;27;20065;-59
2023/02/08 06:40:15;;;;;;;36.47;15.25;;;;;;;0.12;86.58;98170.28;5098874;28;20529;-59
2023/02/08 06:42:43;;;;;;;40.10;18.00;;;;;;;-0.18;87.67;98175.31;5100742;27;20075;-60
2023/02/08 06:45:11;;;;;;;34.25;16.23;;;;;;;-0.36;94.13;98180.94;5102836;27;20070;-57
2023/02/08 06:47:40;;;;;;;37.17;18.30;;;;;;;-0.39;95.15;98184.44;5105093;27;20110;-60
2023/02/08 06:50:10;;;;;;;31.83;14.32;;;;;;;-0.09;90.81;98177.69;5100690;28;20071;-58
2023/02/08 06:52:38;;;;;;;30.00;12.90;;;;;;;-0.15;93.06;98171.81;5093830;27;20074;-55
2023/02/08 06:55:07;;;;;;;24.23;12.27;;;;;;;0.15;92.06;98180.59;5105909;27;20078;-54
2023/02/08 06:57:36;;;;;;;31.35;17.20;;;;;;;-0.02;92.76;98175.81;5104207;27;20074;-59
2023/02/08 07:00:06;;;;;;;26.83;12.05;;;;;;;0.14;88.13;98179.75;5087222;28;20448;-56
2023/02/08 07:02:34;;;;;;;28.42;13.70;;;;;;;0.04;93.24;98180.84;5084326;27;20579;-58
2023/02/08 07:05:02;;;;;;;32.15;13.95;;;;;;;0.07;92.88;98185.09;5097960;27;20071;-61
2023/02/08 07:07:31;;;;;;;24.50;10.60;;;;;;;-0.39;99.87;98191.38;5104253;27;20178;-58
2023/02/08 07:09:59;;;;;;;30.70;16.15;;;;;;;-0.47;100.00;98185.53;5101338;27;20063;-57
2023/02/08 07:12:28;;;;;;;32.33;15.02;;;;;;;0.12;98.82;98183.25;5105289;27;20614;-60
2023/02/08 07:14:57;;;;;;;27.17;11.65;;;;;;;0.06;99.36;98184.25;5110299;27;20075;-58
2023/02/08 07:17:26;;;;;;;34.53;15.98;;;;;;;-0.07;98.44;98188.03;5110157;27;20103;-56
2023/02/08 07:19:54;;;;;;;24.35;10.55;;;;;;;-0.05;100.00;98184.50;5098663;27;20449;-59
2023/02/08 07:22:22;;;;;;;39.33;17.90;;;;;;;-0.05;100.00;98184.50;5095778;27;20067;-59
2023/02/08 07:24:51;;;;;;;34.38;16.50;;;;;;;0.33;100.00;98187.03;5101729;27;20072;-57
2023/02/08 07:27:19;;;;;;;32.58;14.15;;;;;;;-0.05;100.00;98186.25;5103240;27;20079;-56
2023/02/08 07:29:48;;;;;;;31.58;15.18;;;;;;;-0.03;100.00;98174.13;5104685;27;20087;-57
2023/02/08 07:32:17;;;;;;;34.58;16.35;;;;;;;-0.06;100.00;98180.22;5103847;27;20542;-57
2023/02/08 07:34:46;;;;;;;30.85;15.70;;;;;;;0.10;100.00;98185.03;5105555;27;20090;-59
2023/02/08 07:37:14;;;;;;;37.22;15.30;;;;;;;-0.02;100.00;98173.22;5101020;27;20078;-59
2023/02/08 07:39:43;;;;;;;29.10;13.77;;;;;;;0.11;100.00;98177.22;5103792;27;20074;-56
2023/02/08 07:42:11;;;;;;;31.35;17.27;;;;;;;-0.40;100.00;98179.31;5106705;27;20511;-58
2023/02/08 07:44:39;;;;;;;26.30;12.73;;;;;;;-0.18;100.00;98180.50;5111442;27;20101;-60
2023/02/08 07:47:08;;;;;;;25.48;12.88;;;;;;;0.04;100.00;98186.03;5104487;27;20074;-57
2023/02/08 07:49:37;;;;;;;37.90;19.52;;;;;;;-0.21;100.00;98185.75;5101751;27;20071;-60
2023/02/08 07:52:06;;;;;;;24.52;12.30;;;;;;;-0.35;100.00;98178.28;5103548;27;20129;-54
2023/02/08 07:54:34;;;;;;;36.63;14.45;;;;;;;0.07;100.00;98172.13;5097214;27;20067;-58
2023/02/08 07:57:02;;;;;;;36.20;18.67;;;;;;;-0.39;100.00;98174.06;5096898;27;20079;-53
2023/02/08 07:59:31;;;;;;;33.35;16.83;;;;;;;-0.32;100.00;98165.25;5097239;28;20074;-56
2023/02/08 08:01:59;;;;;;;27.35;13.68;;;;;;;0.25;100.00;98168.25;5097858;28;20059;-59
2023/02/08 08:04:28;;;;;;;30.50;14.60;;;;;;;0.17;100.00;98169.28;5102886;27;20079;-54
2023/02/08 08:06:57;;;;;;;40.00;21.55;;;;;;;-0.02;100.00;98178.41;5100878;27;20075;-55
2023/02/08 08:09:26;;;;;;;35.63;19.83;;;;;;;-0.05;100.00;98170.69;5097760;27;20080;-58
2023/02/08 08:11:54;;;;;;;31.00;16.27;;;;;;;0.03;100.00;98167.91;5099455;27;20460;-59
2023/02/08 08:14:23;;;;;;;32.53;17.85;;;;;;;0.21;100.00;98176.09;5098530;27;20071;-59
2023/02/08 08:16:51;;;;;;;29.85;14.95;;;;;;;0.34;100.00;98179.22;5102138;27;20068;-57
2023/02/08 08:19:19;;;;;;;32.15;14.98;;;;;;;0.71;100.00;98163.53;5102052;27;20074;-57
2023/02/08 08:21:48;;;;;;;23.73;11.77;;;;;;;0.95;100.00;98169.78;5100336;27;20106;-57
2023/02/08 08:24:18;;;;;;;41.30;23.25;;;;;;;0.27;100.00;98175.06;5091530;27;20083;-54
2023/02/08 08:26:46;;;;;;;41.22;20.42;;;;;;;0.28;100.00;98178.53;5099848;27;20078;-56
2023/02/08 08:29:15;;;;;;;29.70;15.57;;;;;;;0.85;100.00;98173.53;5101149;27;20709;-54
2023/02/08 08:31:43;;;;;;;25.05;11.80;;;;;;;1.61;100.00;98164.38;5108785;27;20086;-56
2023/02/08 08:34:12;;;;;;;26.45;13.98;;;;;;;0.92;100.00;98171.59;5099800;27;20143;-55
2023/02/08 08:36:40;;;;;;;32.13;16.60;;;;;;;0.64;100.00;98171.53;5105488;27;20075;-58
2023/02/08 08:39:08;;;;;;;34.85;16.05;;;;;;;1.25;100.00;98164.59;5097799;27;20078;-58
2023/02/08 08:41:38;;;;;;;29.88;16.05;;;;;;;1.15;100.00;98174.41;5098932;27;20095;-55
2023/02/08 08:44:06;;;;;;;35.90;20.67;;;;;;;0.82;100.00;98175.34;5096620;27;20082;-55
2023/02/08 08:46:35;;;;;;;29.77;16.83;;;;;;;0.88;100.00;98170.00;5101241;28;20736;-53
2023/02/08 08:49:03;;;;;;;29.13;14.38;;;;;;;1.28;100.00;98169.72;5103469;27;20075;-56
2023/02/08 08:51:34;;;;;;;35.60;19.50;;;;;;;0.55;100.00;98177.81;5100795;27;20079;-59
2023/02/08 08:54:02;;;;;;;30.23;15.68;;;;;;;1.42;100.00;98164.09;5100241;27;20527;-54
2023/02/08 08:56:31;;;;;;;32.55;18.77;;;;;;;1.39;100.00;98167.63;5100341;27;20074;-55
2023/02/08 08:59:00;;;;;;;30.17;14.23;;;;;;;1.33;100.00;98172.16;5097806;28;20083;-55
2023/02/08 09:01:29;;;;;;;27.00;13.10;;;;;;;1.71;100.00;98168.41;5097283;27;20083;-57
2023/02/08 09:04:00;;;;;;;25.13;13.73;;;;;;;1.22;100.00;98166.44;5117432;27;20507;-53
2023/02/08 09:06:28;;;;;;;24.67;9.98;;;;;;;1.34;100.00;98164.34;5102234;27;20075;-55
2023/02/08 09:08:56;;;;;;;27.88;16.45;;;;;;;1.12;100.00;98166.69;5102844;27;20075;-48
2023/02/08 09:11:25;;;;;;;33.90;17.73;;;;;;;1.25;100.00;98166.34;5104827;27;20087;-53
2023/02/08 09:13:55;;;;;;;28.65;14.15;;;;;;;1.45;100.00;98173.56;5102756;27;20076;-53
2023/02/08 09:16:25;;;;;;;28.73;17.35;;;;;;;1.07;100.00;98163.41;5102481;27;20562;-54
2023/02/08 09:18:53;;;;;;;30.70;17.42;;;;;;;1.72;99.83;98166.63;5098872;27;20492;-54
2023/02/08 09:21:24;;;;;;;28.50;16.23;;;;;;;1.42;100.00;98169.31;5104055;27;20095;-57
2023/02/08 09:23:53;;;;;;;21.50;10.95;;;;;;;1.53;100.00;98171.56;5099185;27;20444;-52
2023/02/08 09:26:22;;;;;;;21.17;9.65;;;;;;;1.65;99.19;98164.25;5102346;27;20087;-51
2023/02/08 09:28:50;;;;;;;25.77;14.25;;;;;;;1.81;96.03;98164.59;5105311;27;20086;-59
2023/02/08 09:31:20;;;;;;;30.55;16.00;;;;;;;2.17;92.94;98156.53;5108106;27;20690;-50
2023/02/08 09:33:51;;;;;;;27.42;14.32;;;;;;;1.51;97.98;98161.19;5100365;27;20079;-50
2023/02/08 09:36:21;;;;;;;27.80;14.85;;;;;;;1.90;98.14;98168.69;5105138;27;20562;-53
2023/02/08 09:38:50;;;;;;;25.92;17.52;;;;;;;1.29;97.29;98167.97;5101227;28;20086;-52
2023/02/08 09:41:31;;;;;;;27.35;15.80;;;;;;;1.67;97.28;98172.84;5105865;27;20574;-55
2023/02/08 09:44:10;;;;;;;23.83;11.32;;;;;;;2.04;94.11;98161.28;5104750;27;20086;-51
2023/02/08 09:46:40;;;;;;;34.97;20.15;;;;;;;1.65;93.55;98171.19;5103565;27;20076;-53
2023/02/08 09:49:14;;;;;;;24.75;11.07;;;;;;;2.31;90.58;98169.09;5106754;28;20082;-58
2023/02/08 09:51:46;;;;;;;30.92;17.75;;;;;;;1.72;92.67;98180.53;5106570;27;20149;-57
2023/02/08 09:54:18;;;;;;;29.45;16.33;;;;;;;1.98;89.12;98165.81;5100795;28;20751;-48
2023/02/08 09:56:47;;;;;;;34.67;13.00;;;;;;;2.58;88.00;98165.53;5101202;28;20079;-53
2023/02/08 09:59:17;;;;;;;33.28;15.40;;;;;;;2.40;85.26;98173.09;5095127;28;20083;-57
2023/02/08 10:01:46;;;;;;;31.05;17.52;;;;;;;2.03;90.96;98169.13;5100731;28;20131;-54
2023/02/08 10:04:24;;;;;;;35.35;21.25;;;;;;;2.11;86.92;98172.34;5100057;28;20189;-48
2023/02/08 10:06:52;;;;;;;38.20;17.40;;;;;;;2.20;87.30;98169.41;5102616;28;20080;-53
2023/02/08 10:09:25;;;;;;;34.63;16.63;;;;;;;2.83;85.55;98154.25;5104844;28;20079;-54
2023/02/08 10:11:59;;;;;;;23.00;10.13;;;;;;;2.93;81.07;98155.63;5101547;28;20412;-54
2023/02/08 10:14:40;;;;;;;27.20;13.57;;;;;;;2.39;83.97;98164.44;5103370;28;20079;-54
2023/02/08 10:17:24;;;;;;;20.92;10.55;;;;;;;2.61;83.40;98159.34;5099843;28;20105;-50
2023/02/08 10:20:03;;;;;;;31.60;17.35;;;;;;;2.60;82.51;98153.28;5106489;28;20082;-55
2023/02/08 10:22:42;;;;;;;22.60;11.68;;;;;;;2.50;84.83;98151.91;5098256;27;20067;-49
2023/02/08 10:25:23;;;;;;;24.42;13.43;;;;;;;2.16;86.21;98151.34;5098385;27;20099;-54
2023/02/08 10:28:05;;;;;;;32.25;16.33;;;;;;;2.59;83.62;98155.97;5106643;28;20079;-48
2023/02/08 10:30:39;;;;;;;30.80;15.02;;;;;;;3.14;81.79;98140.94;5107355;28;20082;-50
2023/02/08 10:33:12;;;;;;;32.53;20.23;;;;;;;2.74;79.45;98144.16;5104434;27;20451;-49
2023/02/08 10:35:45;;;;;;;29.00;17.50;;;;;;;2.70;79.76;98138.19;5098249;28;20127;-48
2023/02/08 10:38:28;;;;;;;28.63;15.05;;;;;;;2.76;80.78;98139.75;5105310;28;20364;-52
2023/02/08 10:41:17;;;;;;;32.70;17.67;;;;;;;2.82;83.65;98142.97;5104693;28;20557;-54
2023/02/08 10:43:49;;;;;;;28.48;12.90;;;;;;;3.68;76.03;98133.63;5107444;28;20504;-56
2023/02/08 10:46:24;;;;;;;34.88;18.42;;;;;;;3.13;76.71;98120.97;5094392;28;20095;-54
2023/02/08 10:49:02;;;;;;;31.92;18.73;;;;;;;2.63;79.13;98128.91;5099965;28;20087;-52
2023/02/08 10:51:32;;;;;;;30.42;16.23;;;;;;;2.54;84.27;98121.41;5099065;28;20117;-58
2023/02/08 10:54:00;;;;;;;27.17;14.30;;;;;;;3.00;83.59;98112.78;5101098;28;20069;-51
2023/02/08 10:56:39;;;;;;;27.27;14.60;;;;;;;3.16;79.88;98109.59;5101416;27;20098;-53
2023/02/08 10:59:16;;;;;;;22.02;10.70;;;;;;;2.90;79.26;98105.38;5097137;28;20076;-53
2023/02/08 11:01:45;;;;;;;22.60;12.27;;;;;;;3.41;79.48;98112.97;5103010;28;20077;-51
2023/02/08 11:04:14;;;;;;;20.02;10.60;;;;;;;3.57;76.22;98100.16;5101969;28;20082;-49
2023/02/08 11:06:45;;;;;;;26.23;13.45;;;;;;;3.08;75.69;98092.47;5107779;28;20112;-54
2023/02/08 11:09:21;;;;;;;27.52;19.20;;;;;;;2.90;77.62;98098.41;5104035;28;20099;-50
2023/02/08 11:11:51;;;;;;;24.75;12.48;;;;;;;3.51;73.23;98093.44;5108834;27;20545;-50
2023/02/08 11:14:24;;;;;;;19.55;10.50;;;;;;;3.68;76.73;98086.69;5107480;27;20079;-56
2023/02/08 11:17:05;;;;;;;20.30;10.27;;;;;;;3.80;71.76;98084.44;5108305;27;20079;-50
2023/02/08 11:19:35;;;;;;;26.52;14.88;;;;;;;3.65;74.18;98092.91;5096579;28;20087;-52
2023/02/08 11:22:05;;;;;;;21.23;11.98;;;;;;;4.10;70.95;98093.69;5107665;27;20098;-50
2023/02/08 11:24:38;;;;;;;27.58;14.02;;;;;;;3.84;68.61;98097.34;5101105;27;20071;-51
2023/02/08 11:27:17;;;;;;;22.50;13.23;;;;;;;3.46;70.15;98097.97;5109419;27;20083;-54
2023/02/08 11:29:46;;;;;;;21.33;13.10;;;;;;;3.45;66.34;98092.84;5100523;27;20060;-53
2023/02/08 11:32:17;;;;;;;24.20;11.45;;;;;;;3.53;65.70;98088.16;5103599;27;20062;-49
2023/02/08 11:34:46;;;;;;;27.95;15.45;;;;;;;3.27;68.90;98086.59;5111155;27;20066;-56
2023/02/08 11:37:19;;;;;;;28.15;13.32;;;;;;;3.76;68.87;98087.25;5099496;27;20071;-53
2023/02/08 11:39:50;;;;;;;22.55;12.52;;;;;;;3.90;68.42;98097.13;5098826;27;20083;-57